Archival Weather

Chicago O'Hare International

Chicago, Illinois (KORD)

Report from: Thursday, March 21, 2024 12:51 PM CDT
Current time: Tuesday, May 21, 2024 12:09 PM CDT

Current weather – Weather history – Daily summaries
Weather forecast

Temperature3.3°C (37.9°F)
Wind chill0.8°C (33.5°F)
Dew point-8.9°C (16.0°F)
Winds 5 kts (2.6 m/s, 5.8 mph) East-Northeast (60°)
Visibility10 mi. (16.1 km)
Clouds Few clouds 4,500 ft. (1,372 m)
Ceiling: Broken clouds 9,500 ft. (2,896 m)
Broken clouds 25,000 ft. (7,620 m)
Altimeter30.29 in.Hg (1026 mB)
Relative humidity40 %
Density altitude-1,815 ft. (-553 m)
Sea-level pressure102.7 kPa (1027 mB, 30.31 in.Hg)
Max temp last 6 hours3.3°C (37.9°F)
Min temp last 6 hours-1.7°C (28.9°F)
Remarks System requires maintenance
Automated weather observing station with precipitation discriminator
Pressure falling more quickly
Flight conditions Visual Meteorological Conditions
Raw dataKORD 211751Z 06005KT 10SM FEW045 BKN095 BKN250 03/M09 A3029 RMK AO2 SLP265 T00331089 10033 21017 58003 $
An error has occurred. This application may no longer respond until reloaded. Reload 🗙